Search for airport 
image banner adimage banner adimage banner ad
image banner ad

NV33 - Farias Wheel

Located in Smith Valley, United States

ICAO - NV33, IATA -

Data provided by Airmate  

General information

Coordinates: N38°49'60" W119°23'46"
Elevation is 4848 feet MSL.
Magnetic variation is 16° East
View others Airports in Nevada

Operational data

Special qualification required
Current time UTC:
Current local time:
Weather at : KMEV - Minden-Tahoe ( 36 km )
METAR: KMEV 092315Z AUTO 00000KT 10SM CLR 21/M05 A2993 RMK AO2
TAF: KMEV 091720Z 0918/1018 VRB05KT P6SM SKC FM092200 32011G21KT P6SM SCT100 FM100600 35014G23KT P6SM SKC FM101400 35008KT P6SM SKC
View NOTAMs / SUP AIP / TFR affecting this airport [VIEW]
Communications frequencies: [VIEW]

Runways:

RWY identifierQFULength (ft)Width (ft)SurfaceLDA (ft)
16339122ASPH
34339122ASPH

Airport contact information

Address: Smith Valley United States

Satellite view of NV33